PILOTS ONLINE: 274    ATC ONLINE: 49

NZWN

Wellington International Airport

Location

IATA WLG
City Wellington
Country  New Zealand
Latitude 41° 19' 37" S
Longitude 174° 48' 17" E
Elevation 41 ft
Type Large Airport

Map

Weather

METAR
2014/10/01 12:00
NZWN 011200Z AUTO 03014KT 9999 BKN019/// 11/08 Q1006 NOSIG
TAF
2014/10/01 12:23
TAF NZWN 011120Z 0112/0212 02010KT 9999 SCT040 
      BECMG 0118/0120 01015G25KT 
      BECMG 0122/0200 35025G35KT 
      TEMPO 0203/0206 7000 SHRA

Runways

16/34 6352 ft / 148 ft

Outbound flights

Callsign Flying to Pilot ATD/STD ETA Aircraft

Inbound flights

Callsign Flying from Pilot ATD ETA Aircraft